Time;durP1;ratioP1;P1;durP2;ratioP2;P2;SDS_P1;SDS_P2;PMS_P1;PMS_P2;Temp;Humidity;BMP_temperature;BMP_pressure;BME280_temperature;BME280_humidity;BME280_pressure;Samples;Min_cycle;Max_cycle;Signal;HPM_P1;HPM_P2
2022/09/11 00:00:26;;;;;;;;;;;;;;;22.96;57.88;100791.25;2043743;28;19974;-77
2022/09/11 00:01:48;;;;;;;;;;;;;;;22.93;57.73;100785.94;2045705;29;20391;-77
2022/09/11 00:03:10;;;;;;;;;;;;;;;22.86;58.48;100772.75;2047827;29;19926;-77
2022/09/11 00:04:32;;;;;;;;;;;;;;;22.78;59.07;100781.09;2044836;29;19977;-77
2022/09/11 00:05:53;;;;;;;;;;;;;;;22.68;59.68;100774.22;2045190;29;19988;-77
2022/09/11 00:07:16;;;;;;;;;;;;;;;22.66;60.03;100771.59;2045457;29;19922;-77
2022/09/11 00:08:37;;;;;;;;;;;;;;;22.71;60.04;100778.66;2045775;29;19923;-77
2022/09/11 00:10:01;;;;;;;;;;;;;;;22.76;60.11;100774.88;2045823;29;19976;-77
2022/09/11 00:11:23;;;;;;;;;;;;;;;22.80;59.80;100773.84;2045821;29;19938;-77
2022/09/11 00:12:45;;;;;;;;;;;;;;;22.84;59.93;100772.78;2001982;28;1388980;-77
2022/09/11 00:14:09;;;;;;;;;;;;;;;22.84;60.01;100777.31;2049681;28;19970;-77
2022/09/11 00:15:29;;;;;;;;;;;;;;;22.79;60.58;100777.47;2048004;28;19921;-77
2022/09/11 00:16:51;;;;;;;;;;;;;;;22.73;60.71;100779.47;2056532;28;20352;-77
2022/09/11 00:18:13;;;;;;;;;;;;;;;22.69;61.14;100780.50;2046046;29;19930;-77
2022/09/11 00:19:35;;;;;;;;;;;;;;;22.70;61.33;100779.56;2051971;28;20005;-76
2022/09/11 00:20:57;;;;;;;;;;;;;;;22.71;61.18;100774.09;2045715;28;19926;-77
2022/09/11 00:22:19;;;;;;;;;;;;;;;22.74;61.29;100778.56;2045213;29;19959;-77
2022/09/11 00:23:40;;;;;;;;;;;;;;;22.73;61.62;100772.28;2045845;29;19922;-77
2022/09/11 00:25:04;;;;;;;;;;;;;;;22.72;61.66;100773.19;2040947;29;19923;-77
2022/09/11 00:26:26;;;;;;;;;;;;;;;22.75;62.06;100778.50;2051844;28;20330;-77
2022/09/11 00:27:47;;;;;;;;;;;;;;;22.77;61.90;100779.34;2061865;28;19929;-77
2022/09/11 00:29:10;;;;;;;;;;;;;;;22.81;61.69;100777.41;2058944;28;20283;-77
2022/09/11 00:30:31;;;;;;;;;;;;;;;22.82;61.21;100771.97;2046820;29;20367;-77
2022/09/11 00:31:54;;;;;;;;;;;;;;;22.82;61.03;100768.41;2043154;29;19926;-77
2022/09/11 00:33:15;;;;;;;;;;;;;;;22.82;61.23;100777.38;2050120;28;19961;-77
2022/09/11 00:34:38;;;;;;;;;;;;;;;22.81;61.58;100780.09;2045901;29;19922;-77
2022/09/11 00:36:00;;;;;;;;;;;;;;;22.80;61.45;100775.66;2043759;28;20446;-77
2022/09/11 00:37:22;;;;;;;;;;;;;;;22.79;61.57;100776.56;2054203;28;20428;-77
2022/09/11 00:38:45;;;;;;;;;;;;;;;22.78;61.51;100773.00;2040643;29;19922;-77
2022/09/11 00:40:10;;;;;;;;;;;;;;;22.77;61.71;100773.09;2051293;28;19956;-77
2022/09/11 00:41:35;;;;;;;;;;;;;;;22.77;61.87;100778.47;2048358;29;19978;-77
2022/09/11 00:42:57;;;;;;;;;;;;;;;22.77;61.67;100775.78;2051427;28;20428;-77
2022/09/11 00:44:37;;;;;;;;;;;;;;;22.78;61.94;100777.50;2053208;28;19926;-77
2022/09/11 00:46:02;;;;;;;;;;;;;;;22.76;62.01;100777.59;2064243;28;19921;-77
2022/09/11 00:47:23;;;;;;;;;;;;;;;22.77;61.91;100767.69;2047111;29;20001;-77
2022/09/11 00:48:48;;;;;;;;;;;;;;;22.75;62.22;100775.81;2058767;28;19961;-77
2022/09/11 00:50:12;;;;;;;;;;;;;;;22.71;62.22;100767.88;2054337;28;20021;-77
2022/09/11 00:51:35;;;;;;;;;;;;;;;22.69;62.37;100770.63;2054034;28;20452;-77
2022/09/11 00:52:59;;;;;;;;;;;;;;;22.69;62.43;100761.66;2042715;29;19923;-77
2022/09/11 00:54:24;;;;;;;;;;;;;;;22.70;62.71;100764.31;2059548;28;19929;-77
2022/09/11 00:55:52;;;;;;;;;;;;;;;22.69;62.60;100767.03;2048405;29;19922;-77
2022/09/11 00:57:13;;;;;;;;;;;;;;;22.66;62.89;100763.50;2046157;29;20310;-76
2022/09/11 00:58:38;;;;;;;;;;;;;;;22.63;62.87;100760.94;2045654;29;20337;-76
2022/09/11 01:00:00;;;;;;;;;;;;;;;22.60;63.18;100757.47;2049807;28;20009;-77
2022/09/11 01:01:22;;;;;;;;;;;;;;;22.57;63.25;100754.88;2045724;29;19949;-76
2022/09/11 01:02:47;;;;;;;;;;;;;;;22.57;63.40;100758.47;2043056;29;19930;-77
2022/09/11 01:04:09;;;;;;;;;;;;;;;22.57;63.36;100757.56;2049868;28;19922;-76
2022/09/11 01:05:34;;;;;;;;;;;;;;;22.57;63.41;100760.28;2044129;29;19926;-76
2022/09/11 01:06:58;;;;;;;;;;;;;;;22.55;63.50;100757.63;2043752;29;19953;-77
2022/09/11 01:08:19;;;;;;;;;;;;;;;22.51;63.88;100750.56;2051595;28;19922;-76
2022/09/11 01:09:43;;;;;;;;;;;;;;;22.44;64.46;100743.66;2053520;28;20038;-77
2022/09/11 01:11:12;;;;;;;;;;;;;;;22.41;64.67;100750.94;2045658;29;19926;-77
2022/09/11 01:12:38;;;;;;;;;;;;;;;22.40;64.85;100749.16;2054350;28;20005;-76
2022/09/11 01:14:05;;;;;;;;;;;;;;;22.40;64.90;100752.75;2054224;28;19930;-77
2022/09/11 01:15:31;;;;;;;;;;;;;;;22.39;65.06;100750.09;2049059;28;19929;-77
2022/09/11 01:16:55;;;;;;;;;;;;;;;22.40;65.02;100744.66;2046093;29;19973;-76
2022/09/11 01:18:21;;;;;;;;;;;;;;;22.39;65.31;100748.28;2045801;29;19923;-76
2022/09/11 01:19:58;;;;;;;;;;;;;;;22.43;65.07;100741.91;2051147;28;19922;-77
2022/09/11 01:21:53;;;;;;;;;;;;;;;22.44;64.54;100740.97;2039700;29;20470;-77
2022/09/11 01:23:32;;;;;;;;;;;;;;;22.48;64.50;100747.13;2038857;29;19927;-77
2022/09/11 01:24:56;;;;;;;;;;;;;;;22.49;64.20;100740.81;2023122;29;19959;-77
2022/09/11 01:26:36;;;;;;;;;;;;;;;22.48;64.23;100744.41;2029523;29;20423;-77
2022/09/11 01:28:02;;;;;;;;;;;;;;;22.44;64.21;100742.78;2031643;29;19930;-77
2022/09/11 01:29:26;;;;;;;;;;;;;;;22.42;64.43;100744.63;2040105;29;20026;-77
2022/09/11 01:30:51;;;;;;;;;;;;;;;22.41;64.49;100745.56;2036420;29;19929;-77
2022/09/11 01:32:17;;;;;;;;;;;;;;;22.34;64.98;100742.19;2035695;29;19950;-77
2022/09/11 01:33:43;;;;;;;;;;;;;;;22.31;65.07;100747.69;2036643;29;20013;-76
2022/09/11 01:35:10;;;;;;;;;;;;;;;22.33;65.41;100751.19;2037484;29;19927;-77
2022/09/11 01:36:35;;;;;;;;;;;;;;;22.39;65.08;100748.28;2060022;28;20348;-77
2022/09/11 01:38:00;;;;;;;;;;;;;;;22.44;65.10;100748.16;2048302;29;20483;-77
2022/09/11 01:39:25;;;;;;;;;;;;;;;22.44;65.13;100738.28;2050412;28;19931;-77
2022/09/11 01:40:53;;;;;;;;;;;;;;;22.47;65.17;100742.66;2048079;29;19930;-77
2022/09/11 01:42:18;;;;;;;;;;;;;;;22.46;64.89;100741.78;2046503;29;20026;-77
2022/09/11 01:43:44;;;;;;;;;;;;;;;22.45;64.98;100736.47;2035926;29;19923;-77
2022/09/11 01:45:07;;;;;;;;;;;;;;;22.47;65.13;100734.59;2043083;28;19969;-77
2022/09/11 01:46:34;;;;;;;;;;;;;;;22.45;65.08;100733.78;2053695;28;20017;-77
2022/09/11 01:47:57;;;;;;;;;;;;;;;22.42;65.35;100741.94;2046390;29;19926;-78
2022/09/11 01:49:20;;;;;;;;;;;;;;;22.37;65.34;100735.84;2055217;28;20409;-77
2022/09/11 01:50:44;;;;;;;;;;;;;;;22.36;65.46;100734.06;2054196;28;19922;-77
2022/09/11 01:52:08;;;;;;;;;;;;;;;22.33;65.66;100734.16;2047481;29;20033;-77
2022/09/11 01:53:31;;;;;;;;;;;;;;;22.30;65.59;100734.28;2052766;28;19976;-77
2022/09/11 01:54:56;;;;;;;;;;;;;;;22.24;66.26;100733.56;2055627;28;19929;-77
2022/09/11 01:56:19;;;;;;;;;;;;;;;22.16;66.49;100727.53;2047562;29;19949;-77
2022/09/11 01:57:44;;;;;;;;;;;;;;;22.12;66.87;100728.56;2051124;28;19921;-77
2022/09/11 01:59:11;;;;;;;;;;;;;;;22.11;67.13;100729.50;2048348;28;19922;-77
2022/09/11 02:00:34;;;;;;;;;;;;;;;22.14;66.71;100728.50;2054447;28;19922;-77
2022/09/11 02:01:59;;;;;;;;;;;;;;;22.17;67.02;100729.31;2056599;28;20161;-77
2022/09/11 02:03:24;;;;;;;;;;;;;;;22.23;66.44;100728.22;2049712;29;19923;-77
2022/09/11 02:04:48;;;;;;;;;;;;;;;22.27;66.40;100736.13;2049905;28;19923;-77
2022/09/11 02:06:12;;;;;;;;;;;;;;;22.30;66.15;100734.28;2033840;29;19929;-77
2022/09/11 02:07:38;;;;;;;;;;;;;;;22.30;65.94;100734.28;2036922;29;20021;-77
2022/09/11 02:09:01;;;;;;;;;;;;;;;22.29;66.14;100729.81;2033847;29;20014;-77
2022/09/11 02:10:29;;;;;;;;;;;;;;;22.28;66.13;100731.63;2049459;28;19926;-77
2022/09/11 02:11:53;;;;;;;;;;;;;;;22.26;65.69;100718.22;2045231;29;19926;-77
2022/09/11 02:13:17;;;;;;;;;;;;;;;22.25;65.92;100721.84;2033094;29;19931;-77
2022/09/11 02:14:43;;;;;;;;;;;;;;;22.25;65.66;100724.53;2039438;29;19931;-77
2022/09/11 02:16:06;;;;;;;;;;;;;;;22.26;65.45;100718.22;2039417;29;20411;-76
2022/09/11 02:17:32;;;;;;;;;;;;;;;22.29;65.79;100724.44;2039440;29;20383;-76
2022/09/11 02:18:57;;;;;;;;;;;;;;;22.29;65.36;100728.03;2042560;29;19922;-77
2022/09/11 02:20:20;;;;;;;;;;;;;;;22.27;65.21;100724.50;2039435;29;19923;-76
2022/09/11 02:21:42;;;;;;;;;;;;;;;22.26;65.36;100726.28;2043101;28;19929;-77
2022/09/11 02:23:06;;;;;;;;;;;;;;;22.26;65.46;100720.03;2054997;28;19925;-77
2022/09/11 02:24:28;;;;;;;;;;;;;;;22.28;65.67;100712.81;2035993;29;19923;-76
2022/09/11 02:25:50;;;;;;;;;;;;;;;22.29;65.20;100719.06;2044521;29;20375;-77
2022/09/11 02:27:16;;;;;;;;;;;;;;;22.26;65.30;100723.59;2047634;28;19922;-77
2022/09/11 02:28:39;;;;;;;;;;;;;;;22.24;65.67;100721.91;2047140;29;19922;-77
2022/09/11 02:30:02;;;;;;;;;;;;;;;22.22;65.65;100721.97;2048869;29;20021;-76
2022/09/11 02:31:26;;;;;;;;;;;;;;;22.18;65.90;100727.50;2049429;29;20379;-77
2022/09/11 02:32:49;;;;;;;;;;;;;;;22.14;66.31;100731.19;2043667;29;19923;-77
2022/09/11 02:34:12;;;;;;;;;;;;;;;22.09;66.49;100727.78;2038884;29;19931;-77
2022/09/11 02:35:39;;;;;;;;;;;;;;;22.06;66.65;100730.56;2046015;28;19934;-77
2022/09/11 02:37:08;;;;;;;;;;;;;;;22.04;66.87;100727.94;2056620;28;20337;-77
2022/09/11 02:38:34;;;;;;;;;;;;;;;22.05;67.20;100740.47;2048470;29;19985;-76
2022/09/11 02:40:11;;;;;;;;;;;;;;;22.08;66.99;100737.66;2047297;29;19922;-77
2022/09/11 02:41:38;;;;;;;;;;;;;;;22.09;66.75;100736.72;2040809;29;19923;-78
2022/09/11 02:43:08;;;;;;;;;;;;;;;22.11;66.89;100734.88;2053540;28;19922;-77
2022/09/11 02:44:36;;;;;;;;;;;;;;;22.14;66.57;100729.41;2040882;29;19930;-77
2022/09/11 02:46:08;;;;;;;;;;;;;;;22.16;66.72;100721.28;2041124;29;20434;-77
2022/09/11 02:47:39;;;;;;;;;;;;;;;22.17;66.85;100728.44;2041407;29;19922;-77
2022/09/11 02:49:07;;;;;;;;;;;;;;;22.16;66.79;100727.53;2046958;29;19930;-77
2022/09/11 02:50:41;;;;;;;;;;;;;;;22.16;66.93;100738.31;2047413;29;19922;-77
2022/09/11 02:52:09;;;;;;;;;;;;;;;22.12;66.83;100725.88;2048205;29;19923;-77
2022/09/11 02:53:34;;;;;;;;;;;;;;;22.10;67.04;100724.16;2041090;29;20430;-76
2022/09/11 02:55:02;;;;;;;;;;;;;;;22.09;67.04;100722.41;2047114;29;19929;-77
2022/09/11 02:56:31;;;;;;;;;;;;;;;22.11;67.27;100728.63;2048959;29;19926;-77
2022/09/11 02:57:56;;;;;;;;;;;;;;;22.11;66.88;100734.88;2042989;29;20267;-77
2022/09/11 02:59:21;;;;;;;;;;;;;;;22.09;67.20;100725.97;2051091;28;19926;-77
2022/09/11 03:00:42;;;;;;;;;;;;;;;22.10;66.87;100729.56;2035362;29;19922;-77
2022/09/11 03:02:11;;;;;;;;;;;;;;;22.10;67.23;100738.50;2046515;29;19929;-77
2022/09/11 03:03:39;;;;;;;;;;;;;;;22.12;67.12;100722.31;2032975;29;20010;-77
2022/09/11 03:05:01;;;;;;;;;;;;;;;22.11;66.95;100725.94;2043112;29;20371;-78
2022/09/11 03:06:23;;;;;;;;;;;;;;;22.08;67.21;100726.91;2049247;29;20672;-77
2022/09/11 03:07:44;;;;;;;;;;;;;;;22.06;66.81;100731.44;2046122;28;20280;-77
2022/09/11 03:09:07;;;;;;;;;;;;;;;22.06;66.83;100731.44;2048988;29;19928;-77
2022/09/11 03:10:29;;;;;;;;;;;;;;;22.04;66.81;100733.31;2037267;29;19966;-78
2022/09/11 03:11:51;;;;;;;;;;;;;;;22.04;67.04;100733.31;2038929;29;19965;-78
2022/09/11 03:13:14;;;;;;;;;;;;;;;22.04;66.91;100724.38;2038665;29;19931;-78
2022/09/11 03:14:38;;;;;;;;;;;;;;;22.06;66.95;100719.81;2037606;29;20501;-78
2022/09/11 03:16:01;;;;;;;;;;;;;;;22.06;67.11;100726.06;2038733;29;19923;-78
2022/09/11 03:17:24;;;;;;;;;;;;;;;22.10;66.64;100719.69;2046126;29;19922;-77
2022/09/11 03:18:46;;;;;;;;;;;;;;;22.13;66.13;100721.38;2048994;28;20403;-79
2022/09/11 03:20:09;;;;;;;;;;;;;;;22.11;66.49;100712.50;2049351;29;20393;-78
2022/09/11 03:21:30;;;;;;;;;;;;;;;22.08;66.49;100723.34;2041034;29;19935;-78
2022/09/11 03:22:54;;;;;;;;;;;;;;;22.06;66.76;100727.88;2037898;29;19989;-78
2022/09/11 03:24:17;;;;;;;;;;;;;;;22.03;66.87;100717.22;2046015;29;19934;-78
2022/09/11 03:25:39;;;;;;;;;;;;;;;22.00;66.78;100720.88;2045856;29;19922;-78
2022/09/11 03:27:01;;;;;;;;;;;;;;;21.96;67.20;100723.72;2040787;29;20434;-78
2022/09/11 03:28:25;;;;;;;;;;;;;;;21.92;66.98;100722.94;2036612;29;19954;-78
2022/09/11 03:29:46;;;;;;;;;;;;;;;21.94;67.39;100730.91;2046655;29;19928;-77
2022/09/11 03:31:08;;;;;;;;;;;;;;;21.92;67.22;100736.38;2035286;29;20490;-77
2022/09/11 03:32:33;;;;;;;;;;;;;;;21.93;67.15;100730.03;2044103;29;19923;-77
2022/09/11 03:33:54;;;;;;;;;;;;;;;21.92;67.03;100728.31;2032781;29;19968;-77
2022/09/11 03:35:17;;;;;;;;;;;;;;;21.92;67.36;100733.69;2044099;29;19922;-78
2022/09/11 03:36:40;;;;;;;;;;;;;;;21.93;67.00;100729.16;2051220;28;19937;-77
2022/09/11 03:38:01;;;;;;;;;;;;;;;21.94;67.31;100736.28;2032851;29;19965;-78
2022/09/11 03:39:24;;;;;;;;;;;;;;;21.92;67.23;100733.69;2035888;29;19926;-77
2022/09/11 03:40:44;;;;;;;;;;;;;;;21.91;67.39;100739.97;2044645;29;19974;-78
2022/09/11 03:42:07;;;;;;;;;;;;;;;21.90;67.32;100734.66;2038305;29;19952;-78
2022/09/11 03:43:28;;;;;;;;;;;;;;;21.88;67.26;100732.00;2043977;29;19957;-77
2022/09/11 03:44:50;;;;;;;;;;;;;;;21.86;67.16;100729.34;2046042;29;20022;-77
2022/09/11 03:46:11;;;;;;;;;;;;;;;21.88;67.17;100732.88;2037732;29;19927;-77
2022/09/11 03:47:36;;;;;;;;;;;;;;;21.92;67.12;100735.50;2045187;29;19923;-78
2022/09/11 03:48:58;;;;;;;;;;;;;;;21.92;66.95;100733.69;2046477;29;19926;-79
2022/09/11 03:50:19;;;;;;;;;;;;;;;21.95;66.71;100738.06;2038563;29;20451;-78
2022/09/11 03:51:42;;;;;;;;;;;;;;;21.95;66.57;100733.56;2036196;29;19931;-78
2022/09/11 03:53:04;;;;;;;;;;;;;;;21.98;67.12;100740.69;2043235;28;20352;-78
2022/09/11 03:54:26;;;;;;;;;;;;;;;21.98;67.27;100743.38;2046483;29;19930;-79
2022/09/11 03:55:49;;;;;;;;;;;;;;;21.98;67.25;100748.78;2054105;28;19929;-78
2022/09/11 03:57:12;;;;;;;;;;;;;;;21.98;67.03;100744.28;2039573;29;19923;-78
2022/09/11 03:58:33;;;;;;;;;;;;;;;21.95;67.12;100751.50;2046095;29;19962;-77
2022/09/11 03:59:56;;;;;;;;;;;;;;;21.94;67.40;100747.06;2049056;29;19937;-78
2022/09/11 04:01:17;;;;;;;;;;;;;;;21.94;67.39;100742.56;2045848;29;19922;-77
2022/09/11 04:02:42;;;;;;;;;;;;;;;21.94;67.26;100744.38;2038477;29;19927;-78
2022/09/11 04:04:05;;;;;;;;;;;;;;;21.94;67.20;100747.94;2036059;29;19924;-78
2022/09/11 04:05:34;;;;;;;;;;;;;;;21.96;67.36;100748.81;2046878;29;19922;-78
2022/09/11 04:06:57;;;;;;;;;;;;;;;21.98;67.46;100751.47;2033059;29;19927;-78
2022/09/11 04:08:20;;;;;;;;;;;;;;;22.01;67.41;100754.03;2033480;29;19994;-77
2022/09/11 04:09:42;;;;;;;;;;;;;;;22.04;67.32;100746.75;2035317;29;19923;-78
2022/09/11 04:11:06;;;;;;;;;;;;;;;22.07;67.29;100749.34;2042402;29;20575;-78
2022/09/11 04:12:29;;;;;;;;;;;;;;;22.11;67.03;100751.03;2044933;28;19922;-78
2022/09/11 04:13:51;;;;;;;;;;;;;;;22.14;67.08;100741.97;2045627;29;19923;-78
2022/09/11 04:15:12;;;;;;;;;;;;;;;22.16;66.99;100740.09;2048594;29;19922;-78
2022/09/11 04:16:35;;;;;;;;;;;;;;;22.18;66.88;100747.22;2046268;29;19952;-79
2022/09/11 04:17:57;;;;;;;;;;;;;;;22.18;66.83;100749.91;2046278;29;19922;-78
2022/09/11 04:19:22;;;;;;;;;;;;;;;22.21;66.90;100744.41;2041931;28;19935;-78
2022/09/11 04:20:43;;;;;;;;;;;;;;;22.23;66.89;100750.63;2046225;29;19954;-78
2022/09/11 04:22:05;;;;;;;;;;;;;;;22.29;67.07;100748.66;2045996;29;19922;-78
2022/09/11 04:23:33;;;;;;;;;;;;;;;22.31;66.90;100749.50;2047623;28;20004;-78
2022/09/11 04:24:56;;;;;;;;;;;;;;;22.36;66.67;100752.91;2038530;29;19993;-77
2022/09/11 04:26:17;;;;;;;;;;;;;;;22.42;66.84;100761.66;2042996;29;20453;-78
2022/09/11 04:27:42;;;;;;;;;;;;;;;22.47;66.86;100758.81;2042236;29;19973;-78
2022/09/11 04:29:09;;;;;;;;;;;;;;;22.52;66.83;100764.91;2046210;29;19923;-77
2022/09/11 04:30:30;;;;;;;;;;;;;;;22.59;66.76;100769.16;2038155;29;19930;-78
2022/09/11 04:31:52;;;;;;;;;;;;;;;22.66;66.67;100765.31;2035348;29;20066;-78
2022/09/11 04:33:16;;;;;;;;;;;;;;;22.74;66.58;100768.66;2035800;29;20367;-78
2022/09/11 04:34:37;;;;;;;;;;;;;;;22.82;66.45;100754.94;2040410;29;19923;-79
2022/09/11 04:36:03;;;;;;;;;;;;;;;22.90;66.34;100763.66;2042344;29;19930;-78
2022/09/11 04:37:26;;;;;;;;;;;;;;;23.01;66.26;100756.94;2038933;29;19989;-78
2022/09/11 04:38:47;;;;;;;;;;;;;;;23.12;66.00;100758.34;2043343;29;19922;-78
2022/09/11 04:40:10;;;;;;;;;;;;;;;23.20;65.89;100762.53;2048672;29;19922;-78
2022/09/11 04:41:31;;;;;;;;;;;;;;;23.30;65.63;100765.78;2048195;29;20422;-78
2022/09/11 04:42:56;;;;;;;;;;;;;;;23.38;65.59;100761.84;2039162;29;19930;-78
2022/09/11 04:44:19;;;;;;;;;;;;;;;23.47;65.33;100759.75;2038145;29;19922;-78
2022/09/11 04:45:40;;;;;;;;;;;;;;;23.58;65.42;100758.44;2040847;28;19930;-78
2022/09/11 04:47:05;;;;;;;;;;;;;;;23.69;65.21;100761.63;2048461;29;19926;-78
2022/09/11 04:48:27;;;;;;;;;;;;;;;23.82;64.91;100765.63;2048172;29;20025;-78
2022/09/11 04:49:49;;;;;;;;;;;;;;;23.93;64.89;100765.19;2038265;29;19953;-78
2022/09/11 04:51:13;;;;;;;;;;;;;;;24.04;64.67;100762.94;2035572;29;20364;-78
2022/09/11 04:52:36;;;;;;;;;;;;;;;24.15;64.59;100766.09;2037597;29;19930;-78
2022/09/11 04:53:58;;;;;;;;;;;;;;;24.26;64.49;100754.88;2035790;29;19927;-78
2022/09/11 04:55:26;;;;;;;;;;;;;;;24.39;64.28;100766.94;2047851;28;20651;-79
2022/09/11 04:56:48;;;;;;;;;;;;;;;24.50;64.38;100761.97;2048802;29;20453;-79
2022/09/11 04:58:12;;;;;;;;;;;;;;;24.62;64.66;100766.84;2046315;29;19992;-79
2022/09/11 04:59:34;;;;;;;;;;;;;;;24.73;64.17;100768.22;2027883;29;19923;-79
2022/09/11 05:01:01;;;;;;;;;;;;;;;24.86;64.03;100758.66;2036574;29;19994;-78
2022/09/11 05:02:23;;;;;;;;;;;;;;;24.97;64.23;100759.09;2035603;29;20025;-79
2022/09/11 05:03:49;;;;;;;;;;;;;;;25.08;63.76;100762.19;2043958;29;20429;-79
2022/09/11 05:05:11;;;;;;;;;;;;;;;25.21;64.33;100767.91;2038208;29;19969;-78
2022/09/11 05:06:36;;;;;;;;;;;;;;;25.34;63.89;100772.69;2035904;29;19922;-78
2022/09/11 05:08:00;;;;;;;;;;;;;;;25.47;63.97;100766.75;2034294;29;19929;-79
2022/09/11 05:09:23;;;;;;;;;;;;;;;25.59;63.24;100764.41;2040081;29;19922;-79
2022/09/11 05:10:44;;;;;;;;;;;;;;;25.71;63.44;100766.53;2037445;29;19930;-78
2022/09/11 05:12:06;;;;;;;;;;;;;;;25.82;63.04;100763.31;2029883;29;20311;-79
2022/09/11 05:13:30;;;;;;;;;;;;;;;25.94;63.42;100765.44;2036331;29;20034;-80
2022/09/11 05:14:52;;;;;;;;;;;;;;;26.07;63.56;100765.72;2038128;29;19922;-79
2022/09/11 05:16:16;;;;;;;;;;;;;;;26.18;63.06;100775.09;2030071;29;20025;-79
2022/09/11 05:17:38;;;;;;;;;;;;;;;26.29;62.40;100761.06;2038456;29;19927;-81
2022/09/11 05:19:05;;;;;;;;;;;;;;;26.39;62.27;100762.34;2036342;29;19981;-80
2022/09/11 05:20:29;;;;;;;;;;;;;;;26.51;61.27;100758.16;2038461;29;19929;-80
2022/09/11 05:21:52;;;;;;;;;;;;;;;26.60;61.36;100763.09;2037605;29;20340;-80
2022/09/11 05:23:13;;;;;;;;;;;;;;;26.70;60.96;100758.09;2029352;29;19930;-81
2022/09/11 05:24:35;;;;;;;;;;;;;;;26.83;60.75;100757.38;2038872;29;19929;-80
2022/09/11 05:25:56;;;;;;;;;;;;;;;26.94;60.77;100748.72;2046042;29;20402;-80
2022/09/11 05:27:19;;;;;;;;;;;;;;;27.04;60.49;100752.72;2045929;29;20049;-80
2022/09/11 05:28:40;;;;;;;;;;;;;;;27.16;60.40;100752.06;2048226;29;19922;-80
2022/09/11 05:30:02;;;;;;;;;;;;;;;27.29;60.43;100747.75;2037791;29;19929;-80
2022/09/11 05:31:24;;;;;;;;;;;;;;;27.43;59.82;100749.72;2035723;29;20391;-80
2022/09/11 05:32:46;;;;;;;;;;;;;;;27.58;60.06;100753.44;2042273;29;19934;-80
2022/09/11 05:34:10;;;;;;;;;;;;;;;27.75;59.67;100756.09;2037025;29;19945;-80
2022/09/11 05:35:31;;;;;;;;;;;;;;;27.85;59.37;100757.34;2040023;28;19923;-79
2022/09/11 05:36:54;;;;;;;;;;;;;;;27.99;58.75;100751.13;2037657;29;20025;-80
2022/09/11 05:38:15;;;;;;;;;;;;;;;28.11;58.75;100753.13;2043691;29;19926;-80
2022/09/11 05:39:38;;;;;;;;;;;;;;;28.21;58.51;100748.09;2032468;29;19945;-80
2022/09/11 05:41:00;;;;;;;;;;;;;;;28.33;58.72;100741.97;2035622;29;20500;-79
2022/09/11 05:42:22;;;;;;;;;;;;;;;28.48;58.50;100738.34;2039974;29;19922;-79
2022/09/11 05:43:49;;;;;;;;;;;;;;;28.63;58.54;100744.69;2043667;29;19954;-80
2022/09/11 05:45:11;;;;;;;;;;;;;;;28.78;58.62;100743.81;2045227;29;19926;-80
2022/09/11 05:46:32;;;;;;;;;;;;;;;28.90;58.56;100735.78;2040369;29;19922;-80
2022/09/11 05:47:57;;;;;;;;;;;;;;;29.04;58.39;100740.38;2042554;29;19927;-80
2022/09/11 05:49:20;;;;;;;;;;;;;;;29.18;58.55;100740.41;2045729;29;19932;-80
2022/09/11 05:50:42;;;;;;;;;;;;;;;29.36;58.40;100743.88;2048367;29;19977;-80
2022/09/11 05:52:04;;;;;;;;;;;;;;;29.48;58.24;100744.94;2036353;29;19966;-81
2022/09/11 05:53:30;;;;;;;;;;;;;;;29.62;58.02;100737.66;2042813;29;19968;-80
2022/09/11 05:54:53;;;;;;;;;;;;;;;29.77;57.54;100743.97;2045176;29;19930;-78
2022/09/11 05:56:16;;;;;;;;;;;;;;;29.87;57.50;100741.50;2052724;28;19922;-81
2022/09/11 05:57:39;;;;;;;;;;;;;;;30.00;57.46;100743.38;2040230;29;19930;-80
2022/09/11 05:59:01;;;;;;;;;;;;;;;30.14;57.19;100745.19;2044216;29;19978;-80
2022/09/11 06:00:29;;;;;;;;;;;;;;;30.29;57.22;100732.41;2040124;29;19958;-80
2022/09/11 06:01:53;;;;;;;;;;;;;;;30.43;56.71;100735.97;2037562;29;19923;-78
2022/09/11 06:03:32;;;;;;;;;;;;;;;30.62;55.89;100740.19;2039810;29;19933;-77
2022/09/11 06:04:56;;;;;;;;;;;;;;;30.75;55.62;100738.38;2045458;29;19923;-79
2022/09/11 06:06:20;;;;;;;;;;;;;;;30.87;55.58;100737.50;2045434;29;19922;-77
2022/09/11 06:07:42;;;;;;;;;;;;;;;31.00;55.05;100740.25;2037838;29;20298;-78
2022/09/11 06:09:03;;;;;;;;;;;;;;;31.11;55.41;100737.72;2045091;29;20425;-79
2022/09/11 06:10:25;;;;;;;;;;;;;;;31.22;55.47;100729.63;2045139;29;20002;-79
2022/09/11 06:11:46;;;;;;;;;;;;;;;31.35;55.08;100729.63;2038990;29;20465;-79
2022/09/11 06:13:09;;;;;;;;;;;;;;;31.45;55.40;100728.84;2039025;29;19927;-79
2022/09/11 06:14:31;;;;;;;;;;;;;;;31.56;54.94;100730.84;2040002;29;19922;-79
2022/09/11 06:15:54;;;;;;;;;;;;;;;31.64;54.66;100731.16;2037925;29;20425;-80
2022/09/11 06:17:16;;;;;;;;;;;;;;;31.76;54.38;100734.88;2037202;29;19937;-80
2022/09/11 06:18:38;;;;;;;;;;;;;;;31.88;54.58;100732.13;2037615;29;20025;-79
2022/09/11 06:20:02;;;;;;;;;;;;;;;31.95;54.12;100730.69;2032326;29;20355;-79
2022/09/11 06:21:25;;;;;;;;;;;;;;;32.03;54.01;100730.97;2044381;28;19922;-78
2022/09/11 06:22:55;;;;;;;;;;;;;;;32.06;53.96;100738.06;2036736;29;20577;-79
2022/09/11 06:24:19;;;;;;;;;;;;;;;32.09;53.13;100737.84;2036895;29;19954;-79
2022/09/11 06:25:40;;;;;;;;;;;;;;;32.17;53.36;100740.91;2045493;29;20025;-79
2022/09/11 06:27:03;;;;;;;;;;;;;;;32.29;53.05;100740.00;2040840;29;19922;-79
2022/09/11 06:28:24;;;;;;;;;;;;;;;32.39;52.15;100737.44;2035872;28;20363;-79
2022/09/11 06:29:49;;;;;;;;;;;;;;;32.46;52.59;100735.97;2044832;28;19990;-80
2022/09/11 06:31:15;;;;;;;;;;;;;;;32.57;52.95;100737.88;2043139;28;20422;-80
2022/09/11 06:32:38;;;;;;;;;;;;;;;32.71;52.51;100738.59;2044451;28;19937;-80
2022/09/11 06:34:00;;;;;;;;;;;;;;;32.81;50.85;100736.94;2051256;28;19926;-79
2022/09/11 06:35:23;;;;;;;;;;;;;;;32.86;50.95;100736.56;2039653;29;19929;-80
2022/09/11 06:36:46;;;;;;;;;;;;;;;32.91;51.12;100731.59;2036310;29;19954;-82
2022/09/11 06:38:07;;;;;;;;;;;;;;;33.02;51.36;100739.81;2045461;29;20373;-81
2022/09/11 06:39:30;;;;;;;;;;;;;;;33.13;51.12;100736.25;2036940;29;20593;-82
2022/09/11 06:40:55;;;;;;;;;;;;;;;33.22;50.10;100736.41;2046654;28;19923;-81
2022/09/11 06:42:18;;;;;;;;;;;;;;;33.26;49.28;100734.31;2030354;29;20050;-81
2022/09/11 06:43:41;;;;;;;;;;;;;;;33.25;49.54;100745.38;2049365;28;19926;-81
2022/09/11 06:45:03;;;;;;;;;;;;;;;33.25;48.48;100738.06;2055108;28;19922;-81
2022/09/11 06:46:25;;;;;;;;;;;;;;;33.27;48.76;100740.69;2038816;29;19965;-81
2022/09/11 06:47:50;;;;;;;;;;;;;;;33.24;48.63;100744.50;2046349;28;19922;-80
2022/09/11 06:49:13;;;;;;;;;;;;;;;33.14;48.95;100743.47;2045640;29;19980;-81
2022/09/11 06:50:56;;;;;;;;;;;;;;;33.06;49.03;100740.47;2041697;29;19922;-81
2022/09/11 06:52:18;;;;;;;;;;;;;;;33.12;49.23;100746.34;2047036;29;19927;-82
2022/09/11 06:53:53;;;;;;;;;;;;;;;33.19;48.57;100744.88;2047411;28;19981;-81
2022/09/11 06:55:17;;;;;;;;;;;;;;;33.22;48.50;100743.75;2040508;29;20017;-81
2022/09/11 06:56:46;;;;;;;;;;;;;;;33.27;48.57;100736.06;2044867;29;19969;-81
2022/09/11 06:58:08;;;;;;;;;;;;;;;33.34;48.65;100739.19;2028816;29;20399;-82
2022/09/11 06:59:31;;;;;;;;;;;;;;;33.45;48.28;100741.94;2040167;28;19922;-81
2022/09/11 07:00:52;;;;;;;;;;;;;;;33.58;48.02;100748.16;2046956;29;19922;-81
2022/09/11 07:02:15;;;;;;;;;;;;;;;33.63;47.50;100746.78;2038287;29;20276;-81
2022/09/11 07:03:42;;;;;;;;;;;;;;;33.62;47.22;100752.41;2045964;28;20490;-81
2022/09/11 07:05:05;;;;;;;;;;;;;;;33.60;46.79;100752.53;2039399;29;19923;-81
2022/09/11 07:06:30;;;;;;;;;;;;;;;33.51;46.94;100750.53;2044114;29;19926;-81
2022/09/11 07:07:51;;;;;;;;;;;;;;;33.47;47.30;100750.91;2037853;29;19931;-81
2022/09/11 07:09:14;;;;;;;;;;;;;;;33.47;47.15;100751.78;2038665;29;19923;-81
2022/09/11 07:10:45;;;;;;;;;;;;;;;33.50;46.96;100757.00;2049027;29;19933;-81